Time;durP1;ratioP1;P1;durP2;ratioP2;P2;SDS_P1;SDS_P2;PMS_P1;PMS_P2;Temp;Humidity;BMP_temperature;BMP_pressure;BME280_temperature;BME280_humidity;BME280_pressure;Samples;Min_cycle;Max_cycle;Signal;HPM_P1;HPM_P2
2022/07/10 00:00:36;;;;;;;6.30;5.73;;;18.20;99.90;;;;;;5053893;28;20568;-55
2022/07/10 00:03:04;;;;;;;6.20;5.00;;;18.20;99.90;;;;;;5053427;28;20929;-55
2022/07/10 00:05:35;;;;;;;5.87;5.37;;;18.30;99.90;;;;;;5053772;28;20881;-57
2022/07/10 00:08:02;;;;;;;5.80;5.40;;;18.20;99.90;;;;;;5053801;28;20546;-56
2022/07/10 00:10:30;;;;;;;5.43;5.00;;;18.30;99.90;;;;;;5053213;28;20555;-56
2022/07/10 00:12:59;;;;;;;5.27;4.77;;;18.30;99.90;;;;;;5053102;28;20484;-55
2022/07/10 00:15:26;;;;;;;7.33;5.70;;;18.40;99.90;;;;;;5053281;28;20536;-56
2022/07/10 00:17:53;;;;;;;5.93;5.43;;;18.40;99.90;;;;;;5053537;28;20449;-55
2022/07/10 00:20:20;;;;;;;5.73;5.23;;;18.50;99.90;;;;;;5053404;28;20469;-55
2022/07/10 00:22:47;;;;;;;5.40;5.00;;;18.40;99.90;;;;;;5053544;28;20524;-55
2022/07/10 00:25:15;;;;;;;5.50;5.00;;;18.40;99.90;;;;;;5053546;28;20532;-56
2022/07/10 00:27:43;;;;;;;5.77;5.20;;;18.30;99.90;;;;;;5053276;28;20886;-55
2022/07/10 00:30:12;;;;;;;5.30;4.90;;;18.40;99.90;;;;;;5052987;28;20556;-56
2022/07/10 00:32:39;;;;;;;6.40;4.90;;;18.40;99.90;;;;;;5053769;28;20495;-59
2022/07/10 00:35:08;;;;;;;5.17;4.77;;;18.50;99.90;;;;;;5052881;28;20453;-55
2022/07/10 00:37:36;;;;;;;5.80;5.20;;;18.50;99.90;;;;;;5052409;28;20569;-56
2022/07/10 00:40:05;;;;;;;5.80;4.67;;;18.40;99.90;;;;;;5052847;28;20492;-54
2022/07/10 00:42:32;;;;;;;5.93;4.77;;;18.40;99.90;;;;;;5052751;28;20453;-54
2022/07/10 00:45:00;;;;;;;5.30;4.80;;;18.50;99.90;;;;;;5052792;28;20445;-54
2022/07/10 00:47:29;;;;;;;4.73;4.33;;;18.50;99.90;;;;;;5052849;28;20517;-55
2022/07/10 00:49:56;;;;;;;5.60;5.10;;;18.60;99.90;;;;;;5052732;28;20548;-54
2022/07/10 00:52:24;;;;;;;4.80;4.40;;;18.50;99.90;;;;;;5052971;28;20454;-55
2022/07/10 00:54:51;;;;;;;5.13;4.63;;;18.40;99.90;;;;;;5053145;28;20448;-55
2022/07/10 00:57:19;;;;;;;5.07;4.70;;;18.50;99.90;;;;;;5052982;28;20445;-55
2022/07/10 00:59:47;;;;;;;6.10;4.97;;;18.40;99.90;;;;;;5052847;28;20552;-55
2022/07/10 01:02:15;;;;;;;5.23;4.83;;;18.40;99.90;;;;;;5053079;28;20452;-54
2022/07/10 01:04:44;;;;;;;5.10;4.70;;;18.30;99.90;;;;;;5052958;28;20460;-54
2022/07/10 01:07:11;;;;;;;7.43;5.10;;;18.30;99.90;;;;;;5052854;28;20556;-55
2022/07/10 01:09:38;;;;;;;5.43;4.93;;;18.20;99.90;;;;;;5052816;28;20557;-55
2022/07/10 01:12:07;;;;;;;5.30;4.90;;;18.20;99.90;;;;;;5052569;28;20537;-54
2022/07/10 01:14:37;;;;;;;6.40;4.63;;;18.20;99.90;;;;;;5052840;28;20445;-54
2022/07/10 01:17:05;;;;;;;5.37;4.97;;;18.20;99.90;;;;;;5052832;28;20458;-54
2022/07/10 01:19:33;;;;;;;5.63;5.13;;;18.20;99.90;;;;;;5052552;28;20553;-54
2022/07/10 01:22:01;;;;;;;5.40;4.80;;;18.10;99.90;;;;;;5052382;28;20872;-55
2022/07/10 01:24:28;;;;;;;5.77;5.27;;;18.00;99.90;;;;;;5052408;28;20449;-54
2022/07/10 01:26:55;;;;;;;7.23;5.50;;;18.00;99.90;;;;;;5052506;28;20875;-55
2022/07/10 01:29:23;;;;;;;5.23;4.83;;;18.00;99.90;;;;;;5052526;28;20568;-54
2022/07/10 01:31:50;;;;;;;4.97;4.47;;;18.10;99.90;;;;;;5052504;28;20944;-54
2022/07/10 01:34:18;;;;;;;6.10;5.60;;;18.00;99.90;;;;;;5052500;28;20481;-54
2022/07/10 01:36:45;;;;;;;5.93;5.33;;;18.10;99.90;;;;;;5052950;28;20460;-54
2022/07/10 01:39:14;;;;;;;5.20;4.90;;;18.10;99.90;;;;;;5052226;28;20572;-55
2022/07/10 01:41:41;;;;;;;7.40;5.43;;;18.10;99.90;;;;;;5052502;28;20644;-54
2022/07/10 01:44:08;;;;;;;6.13;5.60;;;18.10;99.90;;;;;;5052717;28;20540;-55
2022/07/10 01:46:36;;;;;;;5.40;5.00;;;18.20;99.90;;;;;;5052543;28;20492;-55
2022/07/10 01:49:04;;;;;;;6.13;5.33;;;18.10;99.90;;;;;;5052445;28;20485;-55
2022/07/10 01:51:31;;;;;;;6.27;5.63;;;18.10;99.90;;;;;;5052639;28;20545;-55
2022/07/10 01:53:58;;;;;;;6.10;5.60;;;18.10;99.90;;;;;;5052153;28;20540;-55
2022/07/10 01:56:26;;;;;;;6.27;5.77;;;18.00;99.90;;;;;;5052192;28;20453;-55
2022/07/10 01:58:53;;;;;;;6.17;5.67;;;17.90;99.90;;;;;;5052558;28;20452;-55
2022/07/10 02:01:21;;;;;;;6.67;5.97;;;17.90;99.90;;;;;;5052193;28;20866;-55
2022/07/10 02:06:32;;;;;;;6.07;5.57;;;17.80;99.90;;;;;;5056169;28;20934;-54
2022/07/10 02:08:59;;;;;;;7.23;6.63;;;17.80;99.90;;;;;;5055671;28;21110;-55
2022/07/10 02:11:28;;;;;;;6.87;6.27;;;17.80;99.90;;;;;;5055454;28;20979;-55
2022/07/10 02:13:55;;;;;;;7.57;6.90;;;17.80;99.90;;;;;;5055323;28;20455;-54
2022/07/10 02:16:22;;;;;;;8.93;8.03;;;17.80;99.90;;;;;;5055549;28;21003;-54
2022/07/10 02:18:49;;;;;;;7.70;7.00;;;17.80;99.90;;;;;;5055425;28;20452;-55
2022/07/10 02:21:16;;;;;;;8.73;7.60;;;17.70;99.90;;;;;;5055586;28;20647;-54
2022/07/10 02:23:44;;;;;;;9.10;7.63;;;17.70;99.90;;;;;;5055668;28;20785;-54
2022/07/10 02:26:11;;;;;;;9.07;8.17;;;17.70;99.90;;;;;;5055341;28;20443;-54
2022/07/10 02:28:39;;;;;;;9.50;8.70;;;17.60;99.90;;;;;;5055428;28;20487;-54
2022/07/10 02:31:06;;;;;;;10.37;9.33;;;17.70;99.90;;;;;;5055242;28;21039;-54
2022/07/10 02:33:34;;;;;;;9.97;9.07;;;17.70;99.90;;;;;;5055222;28;20425;-55
2022/07/10 02:36:01;;;;;;;10.23;9.33;;;17.80;99.90;;;;;;5055389;28;20866;-55
2022/07/10 02:38:29;;;;;;;11.10;10.10;;;17.80;99.90;;;;;;5054947;28;20484;-54
2022/07/10 02:40:56;;;;;;;11.07;10.13;;;17.80;99.90;;;;;;5055028;28;20475;-55
2022/07/10 02:43:23;;;;;;;12.10;11.00;;;17.80;99.90;;;;;;5055149;28;20846;-55
2022/07/10 02:45:52;;;;;;;11.37;10.37;;;17.60;99.90;;;;;;5054947;28;20536;-54
2022/07/10 02:48:19;;;;;;;11.63;10.53;;;17.50;99.90;;;;;;5054996;28;20469;-55
2022/07/10 02:50:46;;;;;;;12.73;11.43;;;17.60;99.90;;;;;;5055067;28;20572;-55
2022/07/10 02:53:13;;;;;;;12.80;10.60;;;17.50;99.90;;;;;;5054890;28;20441;-55
2022/07/10 02:55:40;;;;;;;11.80;10.60;;;17.50;99.90;;;;;;5054849;28;20441;-55
2022/07/10 02:58:09;;;;;;;26.33;13.53;;;17.60;99.90;;;;;;5054694;28;20536;-55
2022/07/10 03:00:36;;;;;;;12.73;11.63;;;17.40;99.90;;;;;;5054883;28;20480;-54
2022/07/10 03:03:05;;;;;;;13.63;12.33;;;17.40;99.90;;;;;;5054764;28;20452;-54
2022/07/10 03:05:33;;;;;;;14.13;12.80;;;17.40;99.90;;;;;;5054865;28;20457;-55
2022/07/10 03:08:00;;;;;;;14.80;13.40;;;17.30;99.90;;;;;;5054667;28;20531;-55
2022/07/10 03:10:30;;;;;;;12.70;11.47;;;17.40;99.90;;;;;;5054810;28;20552;-54
2022/07/10 03:12:57;;;;;;;14.47;13.07;;;17.40;99.90;;;;;;5054245;28;20485;-54
2022/07/10 03:15:24;;;;;;;15.10;13.60;;;17.50;99.90;;;;;;5054553;28;20532;-54
2022/07/10 03:17:52;;;;;;;17.50;12.07;;;17.40;99.90;;;;;;5054746;28;20548;-54
2022/07/10 03:20:20;;;;;;;13.77;12.47;;;17.30;99.90;;;;;;5054187;28;20824;-54
2022/07/10 03:22:48;;;;;;;12.73;11.43;;;17.40;99.90;;;;;;5054272;28;20426;-54
2022/07/10 03:25:15;;;;;;;14.90;11.93;;;17.50;99.90;;;;;;5054455;28;20528;-54
2022/07/10 03:27:42;;;;;;;14.10;12.80;;;17.40;99.90;;;;;;5054396;28;20449;-55
2022/07/10 03:30:10;;;;;;;14.83;13.27;;;17.30;99.90;;;;;;5054241;28;20496;-55
2022/07/10 03:32:38;;;;;;;13.53;12.20;;;17.40;99.90;;;;;;5053978;28;20479;-54
2022/07/10 03:35:06;;;;;;;12.40;11.30;;;17.30;99.90;;;;;;5054303;28;20461;-54
2022/07/10 03:37:34;;;;;;;15.47;11.83;;;17.40;99.90;;;;;;5053935;28;20902;-55
2022/07/10 03:40:02;;;;;;;16.60;12.40;;;17.40;99.90;;;;;;5054048;28;20457;-55
2022/07/10 03:42:29;;;;;;;13.30;12.07;;;17.50;99.90;;;;;;5053914;28;20555;-54
2022/07/10 03:44:56;;;;;;;13.40;12.20;;;17.60;99.90;;;;;;5054053;28;20475;-54
2022/07/10 03:47:23;;;;;;;13.40;12.20;;;17.60;99.90;;;;;;5054003;28;20445;-55
2022/07/10 03:49:50;;;;;;;15.83;10.70;;;17.50;99.90;;;;;;5053998;28;20523;-54
2022/07/10 03:52:18;;;;;;;13.90;12.40;;;17.50;99.90;;;;;;5053601;28;20452;-55
2022/07/10 03:54:46;;;;;;;13.07;11.87;;;17.50;99.90;;;;;;5053500;28;20449;-55
2022/07/10 03:59:58;;;;;;;13.67;12.37;;;17.40;99.90;;;;;;5053673;28;20441;-54
2022/07/10 04:02:25;;;;;;;13.17;11.20;;;17.50;99.90;;;;;;5053724;28;20499;-55
2022/07/10 04:04:52;;;;;;;11.90;10.73;;;17.40;99.90;;;;;;5053386;28;20451;-55
2022/07/10 04:07:20;;;;;;;12.00;10.80;;;17.40;99.90;;;;;;5053529;28;20436;-55
2022/07/10 04:09:49;;;;;;;11.83;10.83;;;17.30;99.90;;;;;;5053223;28;20547;-54
2022/07/10 04:12:16;;;;;;;12.70;11.30;;;17.50;99.90;;;;;;5053165;28;20481;-54
2022/07/10 04:14:43;;;;;;;13.20;10.27;;;17.50;99.90;;;;;;5053391;28;20449;-54
2022/07/10 04:17:10;;;;;;;13.87;11.70;;;17.40;99.90;;;;;;5053273;28;20480;-54
2022/07/10 04:19:37;;;;;;;12.57;11.13;;;17.50;99.90;;;;;;5053101;28;20461;-54
2022/07/10 04:22:05;;;;;;;10.83;9.73;;;17.50;99.90;;;;;;5053572;28;20460;-54
2022/07/10 04:24:32;;;;;;;11.37;10.17;;;17.50;99.90;;;;;;5053191;28;20532;-54
2022/07/10 04:27:00;;;;;;;10.57;9.47;;;17.50;99.90;;;;;;5053134;28;20471;-54
2022/07/10 04:29:28;;;;;;;11.80;10.03;;;17.50;99.90;;;;;;5052958;28;21006;-55
2022/07/10 04:31:55;;;;;;;11.60;10.50;;;17.50;99.90;;;;;;5053443;28;20450;-54
2022/07/10 04:34:22;;;;;;;10.70;9.70;;;17.50;99.90;;;;;;5052965;28;20840;-55
2022/07/10 04:36:49;;;;;;;9.37;8.47;;;17.50;99.90;;;;;;5053330;28;20924;-55
2022/07/10 04:39:16;;;;;;;9.20;8.30;;;17.60;99.90;;;;;;5052815;28;20568;-55
2022/07/10 04:41:44;;;;;;;11.53;9.77;;;17.50;99.90;;;;;;5052866;28;20920;-55
2022/07/10 04:44:13;;;;;;;10.07;8.97;;;17.40;99.90;;;;;;5053036;28;20541;-55
2022/07/10 04:46:40;;;;;;;10.23;9.33;;;17.40;99.90;;;;;;5053231;28;20834;-54
2022/07/10 04:49:07;;;;;;;10.90;9.80;;;17.30;99.90;;;;;;5052924;28;20484;-55
2022/07/10 04:51:34;;;;;;;10.57;9.50;;;17.30;99.90;;;;;;5052879;28;20457;-55
2022/07/10 04:54:01;;;;;;;12.23;8.70;;;17.40;99.90;;;;;;5053190;28;20449;-55
2022/07/10 04:56:29;;;;;;;9.93;8.80;;;17.40;99.90;;;;;;5052998;28;20445;-55
2022/07/10 04:58:56;;;;;;;9.03;8.17;;;17.40;99.90;;;;;;5053002;28;20480;-55
2022/07/10 05:01:24;;;;;;;9.47;8.57;;;17.50;99.90;;;;;;5053059;28;20548;-55
2022/07/10 05:03:51;;;;;;;9.13;8.20;;;17.50;99.90;;;;;;5052748;28;20433;-55
2022/07/10 05:06:19;;;;;;;7.63;6.97;;;17.60;99.90;;;;;;5052940;28;20927;-55
2022/07/10 05:08:46;;;;;;;8.90;8.20;;;17.60;99.90;;;;;;5052645;28;20517;-55
2022/07/10 05:11:13;;;;;;;11.37;6.70;;;17.70;99.90;;;;;;5052501;28;21003;-54
2022/07/10 05:13:43;;;;;;;8.53;6.47;;;17.60;99.90;;;;;;5052661;28;20536;-54
2022/07/10 05:16:12;;;;;;;6.43;5.93;;;17.60;99.90;;;;;;5052654;28;20520;-55
2022/07/10 05:18:41;;;;;;;7.70;6.90;;;17.70;99.90;;;;;;5052963;28;20566;-55
2022/07/10 05:21:08;;;;;;;8.63;6.40;;;17.80;99.90;;;;;;5052555;28;20449;-55
2022/07/10 05:23:36;;;;;;;6.43;5.60;;;17.80;99.90;;;;;;5052752;28;20473;-54
2022/07/10 05:26:03;;;;;;;6.20;5.60;;;17.70;99.90;;;;;;5052534;28;21032;-54
2022/07/10 05:28:30;;;;;;;6.07;5.57;;;17.70;99.90;;;;;;5052370;28;20449;-54
2022/07/10 05:30:57;;;;;;;5.37;4.87;;;17.70;99.90;;;;;;5052304;28;20505;-55
2022/07/10 05:33:26;;;;;;;6.80;6.20;;;17.70;99.90;;;;;;5052826;28;20447;-54
2022/07/10 05:35:55;;;;;;;5.83;5.33;;;17.70;99.90;;;;;;5052529;28;20457;-55
2022/07/10 05:38:22;;;;;;;6.40;5.07;;;17.70;99.90;;;;;;5054923;28;20480;-55
2022/07/10 05:40:50;;;;;;;6.63;5.50;;;17.70;99.90;;;;;;5056153;28;20472;-55
2022/07/10 05:43:17;;;;;;;6.83;5.10;;;17.70;99.90;;;;;;5056319;28;20797;-54
2022/07/10 05:45:45;;;;;;;5.57;5.07;;;17.70;99.90;;;;;;5056328;28;20633;-55
2022/07/10 05:48:12;;;;;;;5.33;4.83;;;17.70;99.90;;;;;;5056093;28;20949;-54
2022/07/10 05:50:39;;;;;;;5.30;4.60;;;17.90;99.90;;;;;;5055765;28;20523;-55
2022/07/10 05:53:08;;;;;;;7.70;4.07;;;17.90;99.90;;;;;;5056105;28;20445;-55
2022/07/10 05:55:35;;;;;;;4.83;4.37;;;17.90;99.90;;;;;;5056173;28;20472;-55
2022/07/10 05:58:02;;;;;;;5.40;4.27;;;17.70;99.90;;;;;;5055967;28;20524;-55
2022/07/10 06:00:29;;;;;;;7.07;3.83;;;17.90;99.90;;;;;;5056039;28;20493;-54
2022/07/10 06:02:56;;;;;;;3.80;3.40;;;18.00;99.90;;;;;;5056107;28;20457;-54
2022/07/10 06:05:24;;;;;;;4.10;3.63;;;17.90;99.90;;;;;;5056071;28;20906;-55
2022/07/10 06:07:51;;;;;;;4.63;4.23;;;18.00;99.90;;;;;;5055678;28;20456;-55
2022/07/10 06:10:20;;;;;;;5.43;3.37;;;17.90;99.90;;;;;;5055414;28;20567;-55
2022/07/10 06:12:47;;;;;;;3.70;3.40;;;18.00;99.90;;;;;;5055471;28;20962;-54
2022/07/10 06:15:14;;;;;;;3.50;3.17;;;17.90;99.90;;;;;;5055430;28;20484;-55
2022/07/10 06:17:41;;;;;;;6.07;3.90;;;17.80;99.90;;;;;;5055483;28;20544;-55
2022/07/10 06:20:09;;;;;;;4.10;3.20;;;17.90;99.90;;;;;;5055554;28;20456;-54
2022/07/10 06:22:37;;;;;;;4.53;4.10;;;18.00;99.90;;;;;;5055655;28;20532;-54
2022/07/10 06:25:06;;;;;;;6.10;4.13;;;18.10;99.90;;;;;;5055496;28;20444;-54
2022/07/10 06:27:35;;;;;;;4.20;3.83;;;18.20;99.90;;;;;;5055322;28;20449;-55
2022/07/10 06:30:03;;;;;;;3.60;3.20;;;18.30;99.90;;;;;;5055372;28;20489;-54
2022/07/10 06:32:31;;;;;;;7.63;3.40;;;18.60;99.90;;;;;;5055434;28;20811;-55
2022/07/10 06:34:58;;;;;;;4.40;3.53;;;18.50;99.90;;;;;;5055516;28;20476;-55
2022/07/10 06:37:26;;;;;;;7.23;3.70;;;18.20;99.90;;;;;;5055225;28;20461;-55
2022/07/10 06:39:53;;;;;;;3.60;3.30;;;18.00;99.90;;;;;;5054964;28;20468;-55
2022/07/10 06:42:20;;;;;;;5.73;4.33;;;18.00;99.90;;;;;;5055072;28;20952;-55
2022/07/10 06:44:49;;;;;;;4.77;3.50;;;17.90;99.90;;;;;;5055291;28;20441;-54
2022/07/10 06:50:04;;;;;;;3.33;3.03;;;17.80;99.90;;;;;;5054788;28;20484;-54
2022/07/10 06:52:33;;;;;;;7.03;3.93;;;17.80;99.90;;;;;;5054996;28;20532;-55
2022/07/10 06:55:01;;;;;;;7.00;4.07;;;17.90;99.90;;;;;;5055077;28;20442;-55
2022/07/10 06:57:29;;;;;;;7.10;4.00;;;18.00;99.90;;;;;;5054661;28;20543;-55
2022/07/10 06:59:57;;;;;;;3.47;3.17;;;18.10;99.90;;;;;;5054808;28;20466;-55
2022/07/10 07:02:25;;;;;;;4.90;3.03;;;18.00;99.90;;;;;;5054988;28;20555;-54
2022/07/10 07:04:52;;;;;;;6.20;3.47;;;18.10;99.90;;;;;;5054417;28;20503;-54
2022/07/10 07:07:19;;;;;;;5.40;3.00;;;18.10;99.90;;;;;;5054843;28;20430;-55
2022/07/10 07:09:49;;;;;;;5.23;3.30;;;18.10;99.90;;;;;;5054822;28;20493;-55
2022/07/10 07:12:16;;;;;;;5.47;2.87;;;18.30;99.90;;;;;;5055058;28;20449;-55
2022/07/10 07:14:44;;;;;;;3.13;2.80;;;18.40;99.90;;;;;;5054436;28;20484;-54
2022/07/10 07:17:14;;;;;;;4.90;3.20;;;18.60;99.90;;;;;;5054655;28;20469;-54
2022/07/10 07:25:12;;;;;;;7.20;3.50;;;18.30;99.90;;;;;;5054490;28;20516;-54
2022/07/10 07:27:40;;;;;;;2.87;2.60;;;18.30;99.90;;;;;;5054113;28;20982;-55
2022/07/10 07:30:10;;;;;;;3.60;3.30;;;18.40;99.90;;;;;;5053887;28;20543;-55
2022/07/10 07:32:39;;;;;;;5.60;2.90;;;18.60;99.90;;;;;;5054447;28;20525;-55
2022/07/10 07:35:09;;;;;;;7.60;3.00;;;18.60;99.90;;;;;;5053889;28;20461;-55
2022/07/10 07:37:37;;;;;;;2.80;2.50;;;18.60;99.90;;;;;;5053563;28;20867;-55
2022/07/10 07:40:06;;;;;;;5.90;3.40;;;18.70;99.90;;;;;;5054096;28;20480;-54
2022/07/10 07:42:33;;;;;;;4.20;3.30;;;18.70;99.90;;;;;;5054225;28;20471;-54
2022/07/10 07:45:01;;;;;;;2.33;2.13;;;18.40;99.90;;;;;;5053975;28;20723;-54
2022/07/10 07:47:28;;;;;;;3.83;2.93;;;18.50;99.90;;;;;;5053955;28;20465;-55
2022/07/10 07:49:57;;;;;;;6.20;3.00;;;18.70;99.90;;;;;;5053710;28;20576;-55
2022/07/10 07:52:24;;;;;;;5.07;2.43;;;18.70;99.90;;;;;;5053565;28;20536;-54
2022/07/10 07:54:51;;;;;;;3.20;2.90;;;18.70;99.90;;;;;;5053874;28;20446;-54
2022/07/10 07:57:19;;;;;;;6.80;3.03;;;18.70;99.90;;;;;;5053930;28;20449;-54
2022/07/10 07:59:46;;;;;;;2.70;2.50;;;18.90;99.90;;;;;;5052972;28;20826;-55
2022/07/10 08:02:13;;;;;;;3.67;2.63;;;19.00;99.90;;;;;;5053407;28;20453;-54
2022/07/10 08:04:40;;;;;;;8.07;4.20;;;19.00;99.90;;;;;;5053787;28;20574;-54
2022/07/10 08:07:09;;;;;;;2.83;2.57;;;19.00;99.90;;;;;;5053239;28;20456;-55
2022/07/10 08:09:36;;;;;;;3.43;2.97;;;19.10;99.90;;;;;;5053088;28;20527;-55
2022/07/10 08:12:04;;;;;;;3.43;2.33;;;19.10;99.90;;;;;;5053395;28;20940;-55
2022/07/10 08:14:31;;;;;;;4.13;2.13;;;19.10;99.90;;;;;;5053072;28;20932;-54
2022/07/10 08:16:59;;;;;;;6.70;2.53;;;19.50;99.90;;;;;;5053441;28;20507;-54
2022/07/10 08:19:26;;;;;;;4.33;2.70;;;19.70;99.90;;;;;;5053433;28;20994;-54
2022/07/10 08:21:54;;;;;;;2.93;2.10;;;19.60;99.90;;;;;;5053091;28;20491;-55
2022/07/10 08:24:22;;;;;;;3.07;2.60;;;19.40;99.90;;;;;;5053360;28;20473;-54
2022/07/10 08:26:50;;;;;;;3.70;2.67;;;19.20;99.90;;;;;;5053182;28;20480;-54
2022/07/10 08:29:18;;;;;;;5.33;2.77;;;19.60;99.90;;;;;;5052955;28;20453;-54
2022/07/10 08:31:45;;;;;;;2.63;2.43;;;19.90;99.90;;;;;;5053258;28;20481;-54
2022/07/10 08:34:12;;;;;;;4.70;2.83;;;19.70;99.90;;;;;;5052893;28;20453;-54
2022/07/10 08:36:39;;;;;;;4.40;2.83;;;20.30;99.90;;;;;;5053170;28;20485;-54
2022/07/10 08:39:07;;;;;;;4.23;3.13;;;20.30;99.90;;;;;;5052291;28;20508;-54
2022/07/10 08:41:37;;;;;;;3.20;2.40;;;20.30;99.90;;;;;;5053131;28;20545;-54
2022/07/10 08:44:04;;;;;;;3.20;2.50;;;20.10;99.90;;;;;;5053115;28;20785;-54
2022/07/10 08:46:33;;;;;;;6.70;2.70;;;20.70;99.90;;;;;;5053131;28;20449;-54
2022/07/10 08:49:01;;;;;;;6.23;3.07;;;21.20;99.90;;;;;;5052846;28;20522;-54
2022/07/10 08:51:37;;;;;;;4.57;2.23;;;22.60;99.80;;;;;;5052735;28;21069;-54
2022/07/10 08:54:06;;;;;;;6.70;2.33;;;22.60;99.50;;;;;;5052824;28;20911;-55
2022/07/10 08:56:36;;;;;;;2.37;2.17;;;22.40;99.20;;;;;;5052666;28;20453;-57
2022/07/10 08:59:05;;;;;;;3.60;2.10;;;22.70;98.40;;;;;;5052444;28;20463;-54
2022/07/10 09:01:32;;;;;;;2.90;2.50;;;21.80;97.60;;;;;;5052909;28;20441;-55
2022/07/10 09:04:00;;;;;;;3.03;2.50;;;21.50;98.50;;;;;;5052652;28;20449;-55
2022/07/10 09:06:29;;;;;;;2.40;2.20;;;21.20;98.20;;;;;;5053051;28;20575;-55
2022/07/10 09:09:02;;;;;;;3.37;3.17;;;21.60;98.50;;;;;;5052701;28;20532;-55
2022/07/10 09:11:30;;;;;;;3.17;2.50;;;22.10;97.20;;;;;;5054021;28;20488;-55
2022/07/10 09:14:02;;;;;;;2.43;2.00;;;21.90;97.00;;;;;;5056438;28;20468;-55
2022/07/10 09:16:32;;;;;;;2.53;2.30;;;21.80;96.30;;;;;;5056501;28;20434;-55
2022/07/10 09:19:16;;;;;;;5.10;2.97;;;21.80;96.40;;;;;;5056505;28;20540;-56
2022/07/10 09:21:45;;;;;;;4.70;2.27;;;23.30;96.70;;;;;;5056780;28;20483;-55
2022/07/10 09:24:12;;;;;;;3.13;2.13;;;23.30;94.10;;;;;;5056805;28;20541;-55
2022/07/10 09:26:40;;;;;;;3.17;2.03;;;22.90;94.60;;;;;;5056428;28;20536;-55
2022/07/10 09:29:10;;;;;;;2.90;1.90;;;23.30;94.10;;;;;;5056379;28;20452;-56
2022/07/10 09:31:51;;;;;;;3.40;2.30;;;23.00;93.60;;;;;;5056706;28;20565;-56
2022/07/10 09:34:18;;;;;;;5.00;2.50;;;21.90;94.00;;;;;;5056273;28;20456;-56
2022/07/10 09:36:45;;;;;;;2.73;2.07;;;22.00;94.50;;;;;;5056328;28;20461;-55
2022/07/10 09:39:13;;;;;;;3.10;2.23;;;21.30;93.90;;;;;;5056744;28;20959;-56
2022/07/10 09:41:41;;;;;;;2.57;2.37;;;20.90;94.90;;;;;;5056122;28;20536;-54
2022/07/10 09:44:11;;;;;;;3.23;2.03;;;21.00;96.20;;;;;;5056272;28;20449;-54
2022/07/10 09:46:40;;;;;;;7.10;2.40;;;22.20;94.40;;;;;;5056276;28;20457;-54
2022/07/10 09:49:09;;;;;;;2.40;1.97;;;23.70;92.40;;;;;;5055928;28;20449;-54
2022/07/10 09:51:38;;;;;;;6.70;2.20;;;23.60;92.10;;;;;;5055795;28;20480;-54
2022/07/10 09:54:07;;;;;;;4.83;1.90;;;24.30;91.80;;;;;;5056127;28;20536;-54
2022/07/10 09:56:46;;;;;;;5.40;2.30;;;23.60;91.50;;;;;;5055906;28;20445;-54
2022/07/10 09:59:16;;;;;;;2.30;2.10;;;23.30;92.10;;;;;;5056133;28;20468;-54
2022/07/10 10:01:46;;;;;;;3.73;2.00;;;23.40;91.80;;;;;;5055701;28;20455;-55
2022/07/10 10:04:14;;;;;;;6.60;2.43;;;23.80;91.00;;;;;;5055794;28;20887;-55
2022/07/10 10:06:42;;;;;;;3.67;2.70;;;23.20;90.10;;;;;;5056431;28;20908;-56
2022/07/10 10:09:16;;;;;;;6.63;1.90;;;22.30;90.70;;;;;;5055670;28;20445;-55
2022/07/10 10:11:48;;;;;;;6.03;2.40;;;21.90;91.40;;;;;;5055764;28;20463;-55
2022/07/10 10:14:19;;;;;;;2.93;2.27;;;21.30;91.80;;;;;;5055929;28;20426;-55
2022/07/10 10:16:48;;;;;;;2.83;2.30;;;20.50;93.00;;;;;;5056046;28;20509;-55
2022/07/10 10:22:02;;;;;;;3.90;2.30;;;20.90;93.00;;;;;;5055526;28;20401;-55
2022/07/10 10:24:33;;;;;;;11.63;2.90;;;21.30;93.50;;;;;;5054818;28;20853;-55
2022/07/10 10:27:01;;;;;;;2.30;2.10;;;;;;;;;;5055416;28;20436;-55
2022/07/10 10:29:30;;;;;;;3.00;2.00;;;21.80;92.20;;;;;;5055482;28;20465;-55
2022/07/10 10:31:58;;;;;;;2.90;2.03;;;22.70;92.20;;;;;;5055528;28;20491;-55
2022/07/10 10:34:42;;;;;;;6.23;3.20;;;23.40;91.00;;;;;;5055401;28;20443;-55
2022/07/10 10:37:34;;;;;;;4.37;1.80;;;24.30;91.60;;;;;;5055006;28;20456;-56
2022/07/10 10:40:01;;;;;;;2.93;2.10;;;24.50;88.70;;;;;;5055046;28;20840;-55
2022/07/10 10:42:39;;;;;;;3.30;2.17;;;24.70;86.00;;;;;;5055154;28;20451;-56
2022/07/10 10:45:32;;;;;;;5.00;2.10;;;24.30;84.40;;;;;;5055467;28;20516;-55
2022/07/10 10:48:01;;;;;;;3.47;1.90;;;24.50;86.00;;;;;;5055533;28;20455;-55
2022/07/10 10:50:47;;;;;;;4.30;2.40;;;25.70;82.80;;;;;;5054990;28;21011;-56
2022/07/10 10:53:15;;;;;;;2.23;2.03;;;;;;;;;;5055114;28;20955;-56
2022/07/10 10:56:14;;;;;;;2.40;1.90;;;26.60;80.40;;;;;;5054870;28;20487;-56
2022/07/10 10:58:43;;;;;;;4.23;2.10;;;25.70;82.30;;;;;;5054669;28;20826;-56
2022/07/10 11:01:26;;;;;;;4.90;2.23;;;25.70;82.80;;;;;;5054717;28;20548;-55
2022/07/10 11:04:19;;;;;;;2.67;2.27;;;25.40;82.00;;;;;;5055002;28;20429;-56
2022/07/10 11:06:49;;;;;;;3.07;2.00;;;24.60;81.50;;;;;;5055160;28;20456;-55
2022/07/10 11:09:27;;;;;;;4.57;2.33;;;23.60;81.00;;;;;;5054629;28;20472;-55
2022/07/10 11:12:08;;;;;;;4.93;2.53;;;24.00;80.70;;;;;;5054754;28;20491;-55
2022/07/10 11:14:37;;;;;;;2.70;2.03;;;24.50;79.40;;;;;;5054506;28;20436;-56
2022/07/10 11:17:08;;;;;;;3.17;2.20;;;25.00;77.80;;;;;;5054495;28;20458;-56
2022/07/10 11:19:36;;;;;;;2.53;1.90;;;25.20;80.00;;;;;;5054686;28;20531;-56
2022/07/10 11:22:27;;;;;;;2.57;2.07;;;25.90;76.40;;;;;;5054310;28;20446;-55
2022/07/10 11:25:04;;;;;;;3.30;1.90;;;26.70;78.20;;;;;;5054415;28;20430;-55
2022/07/10 11:27:50;;;;;;;4.63;2.00;;;26.20;73.40;;;;;;5054348;28;20524;-55
2022/07/10 11:30:17;;;;;;;2.40;1.73;;;;;;;;;;5054098;28;21017;-55
2022/07/10 11:32:48;;;;;;;2.03;1.83;;;25.70;72.50;;;;;;5054265;28;20449;-55
2022/07/10 11:35:15;;;;;;;3.10;2.20;;;25.90;72.50;;;;;;5054160;28;20456;-55
2022/07/10 11:37:51;;;;;;;2.83;1.90;;;25.50;71.00;;;;;;5053201;28;20564;-55
2022/07/10 11:40:20;;;;;;;2.23;1.70;;;24.70;70.80;;;;;;5054270;28;20469;-55
2022/07/10 11:42:51;;;;;;;3.30;1.90;;;24.20;73.30;;;;;;5054077;28;20448;-55
2022/07/10 11:45:30;;;;;;;2.80;1.83;;;23.80;76.20;;;;;;5054218;28;20449;-55
2022/07/10 11:47:59;;;;;;;2.57;1.70;;;23.50;76.10;;;;;;5053908;28;20448;-55
2022/07/10 11:50:28;;;;;;;2.53;1.70;;;23.00;75.70;;;;;;5053890;28;20502;-55
2022/07/10 11:52:55;;;;;;;2.10;1.90;;;23.00;77.20;;;;;;5054230;28;20460;-55
2022/07/10 11:55:24;;;;;;;2.53;1.70;;;24.30;77.70;;;;;;5054072;28;20445;-55
2022/07/10 11:57:52;;;;;;;3.20;1.70;;;24.50;73.80;;;;;;5054047;28;20477;-55
2022/07/10 12:00:24;;;;;;;2.80;1.70;;;24.20;74.50;;;;;;5054039;28;20473;-55
2022/07/10 12:02:52;;;;;;;6.80;1.80;;;24.30;74.80;;;;;;5053495;28;20787;-55
2022/07/10 12:05:34;;;;;;;2.97;2.27;;;25.00;73.40;;;;;;5053634;28;20457;-55
2022/07/10 12:08:02;;;;;;;2.47;1.80;;;25.50;73.00;;;;;;5053536;28;20913;-55
2022/07/10 12:10:29;;;;;;;2.33;1.70;;;25.30;71.60;;;;;;5053809;28;20560;-55
2022/07/10 12:13:05;;;;;;;2.60;1.57;;;25.30;72.90;;;;;;5053857;28;20452;-55
2022/07/10 12:15:34;;;;;;;4.90;2.13;;;25.70;68.60;;;;;;5053571;28;20464;-55
2022/07/10 12:18:01;;;;;;;2.10;1.90;;;26.20;68.70;;;;;;5053637;28;20532;-55
2022/07/10 12:20:28;;;;;;;2.43;1.50;;;26.10;65.30;;;;;;5053712;28;20560;-55
2022/07/10 12:22:57;;;;;;;3.43;1.80;;;25.60;66.40;;;;;;5053487;28;20441;-55
2022/07/10 12:25:25;;;;;;;2.83;1.63;;;25.30;67.50;;;;;;5053079;28;20492;-55
2022/07/10 12:27:57;;;;;;;4.23;2.30;;;25.30;66.60;;;;;;5053179;28;20806;-55
2022/07/10 12:30:24;;;;;;;3.03;1.77;;;25.70;64.80;;;;;;5053462;28;20473;-55
2022/07/10 12:32:52;;;;;;;3.93;1.77;;;25.00;64.80;;;;;;5052996;28;20864;-55
2022/07/10 12:35:21;;;;;;;4.10;2.13;;;26.00;64.70;;;;;;5052987;28;20944;-55
2022/07/10 12:37:49;;;;;;;3.57;1.60;;;26.10;62.20;;;;;;5053229;28;20561;-55
2022/07/10 12:40:34;;;;;;;3.30;1.73;;;26.30;63.40;;;;;;5053009;28;20477;-55
2022/07/10 12:43:05;;;;;;;4.50;1.53;;;25.50;64.60;;;;;;5053013;28;20929;-55
2022/07/10 12:45:32;;;;;;;3.73;1.70;;;24.50;65.40;;;;;;5052871;28;20445;-55
2022/07/10 12:48:00;;;;;;;2.30;1.57;;;24.50;66.30;;;;;;5052942;28;20461;-55
2022/07/10 12:50:27;;;;;;;2.47;1.60;;;24.80;64.90;;;;;;5052855;28;20469;-55
2022/07/10 12:53:08;;;;;;;1.80;1.50;;;25.30;64.00;;;;;;5052764;28;20512;-55
2022/07/10 12:55:40;;;;;;;1.70;1.50;;;24.40;64.20;;;;;;5053274;28;20525;-55
2022/07/10 12:58:11;;;;;;;2.17;1.50;;;24.90;64.70;;;;;;5053360;28;20442;-57
2022/07/10 13:00:46;;;;;;;2.23;1.47;;;25.50;61.80;;;;;;5053198;28;20972;-55
2022/07/10 13:03:19;;;;;;;1.70;1.50;;;25.70;64.70;;;;;;5053076;28;20483;-55
2022/07/10 13:05:46;;;;;;;2.20;1.43;;;26.10;63.50;;;;;;5052838;28;20452;-56
2022/07/10 13:08:16;;;;;;;3.00;1.70;;;26.30;61.20;;;;;;5052812;28;20477;-55
2022/07/10 13:10:46;;;;;;;2.00;1.57;;;26.10;61.70;;;;;;5052766;28;20559;-55